sensor_id;sensor_type;location;lat;lon;timestamp;P1;durP1;ratioP1;P2;durP2;ratioP2
57325;SDS011;43161;50.950;18.224;2023-07-28T00:01:31;8.80;;;3.20;;
57325;SDS011;43161;50.950;18.224;2023-07-28T00:03:56;8.90;;;3.70;;
57325;SDS011;43161;50.950;18.224;2023-07-28T00:06:23;10.40;;;3.70;;
57325;SDS011;43161;50.950;18.224;2023-07-28T00:08:49;9.40;;;3.40;;
57325;SDS011;43161;50.950;18.224;2023-07-28T00:11:15;8.20;;;3.30;;
57325;SDS011;43161;50.950;18.224;2023-07-28T00:13:42;10.80;;;3.40;;
57325;SDS011;43161;50.950;18.224;2023-07-28T00:16:08;9.80;;;3.00;;
57325;SDS011;43161;50.950;18.224;2023-07-28T00:18:34;10.20;;;3.50;;
57325;SDS011;43161;50.950;18.224;2023-07-28T00:21:00;8.10;;;3.20;;
57325;SDS011;43161;50.950;18.224;2023-07-28T00:23:25;9.80;;;3.10;;
57325;SDS011;43161;50.950;18.224;2023-07-28T00:25:51;8.10;;;3.10;;
57325;SDS011;43161;50.950;18.224;2023-07-28T00:28:17;8.80;;;2.80;;
57325;SDS011;43161;50.950;18.224;2023-07-28T00:30:42;10.00;;;3.40;;
57325;SDS011;43161;50.950;18.224;2023-07-28T00:33:08;10.20;;;3.10;;
57325;SDS011;43161;50.950;18.224;2023-07-28T00:35:34;8.30;;;3.20;;
57325;SDS011;43161;50.950;18.224;2023-07-28T00:37:59;9.80;;;2.90;;
57325;SDS011;43161;50.950;18.224;2023-07-28T00:40:26;11.30;;;2.70;;
57325;SDS011;43161;50.950;18.224;2023-07-28T00:42:51;9.10;;;2.70;;
57325;SDS011;43161;50.950;18.224;2023-07-28T00:45:17;8.70;;;2.90;;
57325;SDS011;43161;50.950;18.224;2023-07-28T00:47:42;9.40;;;3.10;;
57325;SDS011;43161;50.950;18.224;2023-07-28T00:50:08;9.10;;;3.20;;
57325;SDS011;43161;50.950;18.224;2023-07-28T00:52:35;8.70;;;3.10;;
57325;SDS011;43161;50.950;18.224;2023-07-28T00:55:01;9.50;;;3.10;;
57325;SDS011;43161;50.950;18.224;2023-07-28T00:57:27;8.20;;;3.40;;
57325;SDS011;43161;50.950;18.224;2023-07-28T00:59:53;9.20;;;3.20;;
57325;SDS011;43161;50.950;18.224;2023-07-28T01:02:21;9.70;;;3.30;;
57325;SDS011;43161;50.950;18.224;2023-07-28T01:04:47;11.30;;;3.10;;
57325;SDS011;43161;50.950;18.224;2023-07-28T01:07:14;7.50;;;2.70;;
57325;SDS011;43161;50.950;18.224;2023-07-28T01:09:50;8.80;;;2.70;;
57325;SDS011;43161;50.950;18.224;2023-07-28T01:12:18;7.80;;;2.90;;
57325;SDS011;43161;50.950;18.224;2023-07-28T01:14:44;8.40;;;2.70;;
57325;SDS011;43161;50.950;18.224;2023-07-28T01:17:10;9.20;;;2.80;;
57325;SDS011;43161;50.950;18.224;2023-07-28T01:19:36;9.00;;;2.60;;
57325;SDS011;43161;50.950;18.224;2023-07-28T01:24:55;10.50;;;2.90;;
57325;SDS011;43161;50.950;18.224;2023-07-28T01:27:30;10.20;;;2.80;;
57325;SDS011;43161;50.950;18.224;2023-07-28T01:29:56;7.90;;;2.90;;
57325;SDS011;43161;50.950;18.224;2023-07-28T01:32:22;8.30;;;2.80;;
57325;SDS011;43161;50.950;18.224;2023-07-28T01:34:47;9.20;;;2.80;;
57325;SDS011;43161;50.950;18.224;2023-07-28T01:37:13;10.10;;;2.70;;
57325;SDS011;43161;50.950;18.224;2023-07-28T01:39:39;9.50;;;3.40;;
57325;SDS011;43161;50.950;18.224;2023-07-28T01:42:04;9.90;;;2.70;;
57325;SDS011;43161;50.950;18.224;2023-07-28T01:44:30;9.80;;;2.80;;
57325;SDS011;43161;50.950;18.224;2023-07-28T01:46:55;9.30;;;3.10;;
57325;SDS011;43161;50.950;18.224;2023-07-28T01:49:21;8.20;;;2.70;;
57325;SDS011;43161;50.950;18.224;2023-07-28T01:51:47;9.00;;;2.90;;
57325;SDS011;43161;50.950;18.224;2023-07-28T01:54:12;7.50;;;2.80;;
57325;SDS011;43161;50.950;18.224;2023-07-28T01:56:38;8.30;;;2.60;;
57325;SDS011;43161;50.950;18.224;2023-07-28T01:59:04;9.40;;;3.20;;
57325;SDS011;43161;50.950;18.224;2023-07-28T02:01:29;8.90;;;2.80;;
57325;SDS011;43161;50.950;18.224;2023-07-28T02:03:55;9.30;;;2.60;;
57325;SDS011;43161;50.950;18.224;2023-07-28T02:06:20;8.70;;;2.80;;
57325;SDS011;43161;50.950;18.224;2023-07-28T02:08:46;8.90;;;2.60;;
57325;SDS011;43161;50.950;18.224;2023-07-28T02:11:12;8.60;;;2.80;;
57325;SDS011;43161;50.950;18.224;2023-07-28T02:13:37;8.20;;;2.70;;
57325;SDS011;43161;50.950;18.224;2023-07-28T02:16:03;7.70;;;3.00;;
57325;SDS011;43161;50.950;18.224;2023-07-28T02:18:29;10.30;;;3.50;;
57325;SDS011;43161;50.950;18.224;2023-07-28T02:20:54;9.10;;;3.30;;
57325;SDS011;43161;50.950;18.224;2023-07-28T02:23:20;9.50;;;3.10;;
57325;SDS011;43161;50.950;18.224;2023-07-28T02:25:46;10.00;;;3.50;;
57325;SDS011;43161;50.950;18.224;2023-07-28T02:28:12;9.50;;;3.30;;
57325;SDS011;43161;50.950;18.224;2023-07-28T02:30:37;9.50;;;3.10;;
57325;SDS011;43161;50.950;18.224;2023-07-28T02:33:03;9.40;;;3.10;;
57325;SDS011;43161;50.950;18.224;2023-07-28T02:35:29;8.60;;;3.20;;
57325;SDS011;43161;50.950;18.224;2023-07-28T02:37:54;9.30;;;3.10;;
57325;SDS011;43161;50.950;18.224;2023-07-28T02:40:20;10.20;;;3.60;;
57325;SDS011;43161;50.950;18.224;2023-07-28T02:42:45;9.80;;;3.40;;
57325;SDS011;43161;50.950;18.224;2023-07-28T02:45:11;8.20;;;2.90;;
57325;SDS011;43161;50.950;18.224;2023-07-28T02:47:37;10.00;;;3.10;;
57325;SDS011;43161;50.950;18.224;2023-07-28T02:50:03;9.40;;;2.80;;
57325;SDS011;43161;50.950;18.224;2023-07-28T02:52:29;7.90;;;2.70;;
57325;SDS011;43161;50.950;18.224;2023-07-28T02:54:55;8.10;;;2.80;;
57325;SDS011;43161;50.950;18.224;2023-07-28T02:57:21;9.50;;;3.00;;
57325;SDS011;43161;50.950;18.224;2023-07-28T02:59:46;9.80;;;2.90;;
57325;SDS011;43161;50.950;18.224;2023-07-28T03:02:12;9.10;;;3.10;;
57325;SDS011;43161;50.950;18.224;2023-07-28T03:04:38;10.60;;;3.10;;
57325;SDS011;43161;50.950;18.224;2023-07-28T03:07:04;9.20;;;3.20;;
57325;SDS011;43161;50.950;18.224;2023-07-28T03:09:30;10.30;;;3.20;;
57325;SDS011;43161;50.950;18.224;2023-07-28T03:11:55;8.80;;;2.90;;
57325;SDS011;43161;50.950;18.224;2023-07-28T03:14:21;9.00;;;2.80;;
57325;SDS011;43161;50.950;18.224;2023-07-28T03:16:46;8.90;;;3.10;;
57325;SDS011;43161;50.950;18.224;2023-07-28T03:19:12;9.30;;;3.10;;
57325;SDS011;43161;50.950;18.224;2023-07-28T03:21:38;8.10;;;2.80;;
57325;SDS011;43161;50.950;18.224;2023-07-28T03:24:04;8.20;;;2.80;;
57325;SDS011;43161;50.950;18.224;2023-07-28T03:26:30;7.80;;;2.50;;
57325;SDS011;43161;50.950;18.224;2023-07-28T03:28:56;9.60;;;3.00;;
57325;SDS011;43161;50.950;18.224;2023-07-28T03:31:21;9.30;;;2.80;;
57325;SDS011;43161;50.950;18.224;2023-07-28T03:33:47;9.20;;;2.90;;
57325;SDS011;43161;50.950;18.224;2023-07-28T03:36:13;9.10;;;2.70;;
57325;SDS011;43161;50.950;18.224;2023-07-28T03:38:38;8.80;;;2.80;;
57325;SDS011;43161;50.950;18.224;2023-07-28T03:41:04;9.10;;;2.50;;
57325;SDS011;43161;50.950;18.224;2023-07-28T03:43:32;8.60;;;2.90;;
57325;SDS011;43161;50.950;18.224;2023-07-28T03:45:58;10.80;;;2.80;;
57325;SDS011;43161;50.950;18.224;2023-07-28T03:48:23;8.30;;;2.60;;
57325;SDS011;43161;50.950;18.224;2023-07-28T03:50:49;10.10;;;3.00;;
57325;SDS011;43161;50.950;18.224;2023-07-28T03:53:15;8.30;;;2.90;;
57325;SDS011;43161;50.950;18.224;2023-07-28T03:55:40;8.90;;;2.50;;
57325;SDS011;43161;50.950;18.224;2023-07-28T03:58:06;8.60;;;3.10;;
57325;SDS011;43161;50.950;18.224;2023-07-28T04:00:32;8.70;;;3.10;;
57325;SDS011;43161;50.950;18.224;2023-07-28T04:02:58;8.20;;;2.70;;
57325;SDS011;43161;50.950;18.224;2023-07-28T04:05:24;13.30;;;2.80;;
57325;SDS011;43161;50.950;18.224;2023-07-28T04:07:49;9.30;;;2.70;;
57325;SDS011;43161;50.950;18.224;2023-07-28T04:10:15;9.40;;;2.80;;
57325;SDS011;43161;50.950;18.224;2023-07-28T04:12:41;9.70;;;2.90;;
57325;SDS011;43161;50.950;18.224;2023-07-28T04:15:07;9.00;;;2.60;;
57325;SDS011;43161;50.950;18.224;2023-07-28T04:17:33;8.90;;;2.70;;
57325;SDS011;43161;50.950;18.224;2023-07-28T04:19:59;8.00;;;2.50;;
57325;SDS011;43161;50.950;18.224;2023-07-28T04:22:24;10.30;;;3.10;;
57325;SDS011;43161;50.950;18.224;2023-07-28T04:24:50;9.20;;;2.50;;
57325;SDS011;43161;50.950;18.224;2023-07-28T04:27:15;9.90;;;2.40;;
57325;SDS011;43161;50.950;18.224;2023-07-28T04:29:41;9.30;;;2.60;;
57325;SDS011;43161;50.950;18.224;2023-07-28T04:32:07;8.30;;;2.50;;
57325;SDS011;43161;50.950;18.224;2023-07-28T04:34:33;10.40;;;3.10;;
57325;SDS011;43161;50.950;18.224;2023-07-28T04:36:59;8.60;;;2.70;;
57325;SDS011;43161;50.950;18.224;2023-07-28T04:39:25;9.30;;;2.80;;
57325;SDS011;43161;50.950;18.224;2023-07-28T04:41:51;7.90;;;2.50;;
57325;SDS011;43161;50.950;18.224;2023-07-28T04:44:17;9.60;;;2.60;;
57325;SDS011;43161;50.950;18.224;2023-07-28T04:46:42;8.90;;;2.40;;
57325;SDS011;43161;50.950;18.224;2023-07-28T04:49:08;8.70;;;2.80;;
57325;SDS011;43161;50.950;18.224;2023-07-28T04:51:34;9.00;;;2.50;;
57325;SDS011;43161;50.950;18.224;2023-07-28T04:54:00;8.50;;;2.50;;
57325;SDS011;43161;50.950;18.224;2023-07-28T04:56:25;7.30;;;2.20;;
57325;SDS011;43161;50.950;18.224;2023-07-28T04:58:51;9.60;;;2.60;;
57325;SDS011;43161;50.950;18.224;2023-07-28T05:01:17;10.90;;;2.60;;
57325;SDS011;43161;50.950;18.224;2023-07-28T05:03:42;8.20;;;2.80;;
57325;SDS011;43161;50.950;18.224;2023-07-28T05:06:08;9.00;;;2.50;;
57325;SDS011;43161;50.950;18.224;2023-07-28T05:08:33;7.90;;;2.70;;
57325;SDS011;43161;50.950;18.224;2023-07-28T05:10:59;8.50;;;2.90;;
57325;SDS011;43161;50.950;18.224;2023-07-28T05:13:25;8.50;;;2.60;;
57325;SDS011;43161;50.950;18.224;2023-07-28T05:15:50;11.10;;;2.60;;
57325;SDS011;43161;50.950;18.224;2023-07-28T05:18:16;8.00;;;2.70;;
57325;SDS011;43161;50.950;18.224;2023-07-28T05:20:41;8.90;;;3.10;;
57325;SDS011;43161;50.950;18.224;2023-07-28T05:23:07;8.00;;;2.60;;
57325;SDS011;43161;50.950;18.224;2023-07-28T05:25:32;7.20;;;2.20;;
57325;SDS011;43161;50.950;18.224;2023-07-28T05:27:58;7.50;;;2.60;;
57325;SDS011;43161;50.950;18.224;2023-07-28T05:30:24;8.30;;;2.50;;
57325;SDS011;43161;50.950;18.224;2023-07-28T05:32:49;8.70;;;3.30;;
57325;SDS011;43161;50.950;18.224;2023-07-28T05:35:15;7.90;;;2.50;;
57325;SDS011;43161;50.950;18.224;2023-07-28T05:37:41;8.80;;;2.60;;
57325;SDS011;43161;50.950;18.224;2023-07-28T05:40:06;8.90;;;2.40;;
57325;SDS011;43161;50.950;18.224;2023-07-28T05:42:33;8.50;;;2.70;;
57325;SDS011;43161;50.950;18.224;2023-07-28T05:44:59;8.10;;;2.70;;
57325;SDS011;43161;50.950;18.224;2023-07-28T05:47:25;7.40;;;2.40;;
57325;SDS011;43161;50.950;18.224;2023-07-28T05:49:51;7.00;;;2.30;;
57325;SDS011;43161;50.950;18.224;2023-07-28T05:52:19;9.40;;;2.50;;
57325;SDS011;43161;50.950;18.224;2023-07-28T05:54:45;7.80;;;2.50;;
57325;SDS011;43161;50.950;18.224;2023-07-28T05:57:10;8.60;;;2.50;;
57325;SDS011;43161;50.950;18.224;2023-07-28T05:59:37;8.40;;;2.70;;
57325;SDS011;43161;50.950;18.224;2023-07-28T06:02:02;8.10;;;2.40;;
57325;SDS011;43161;50.950;18.224;2023-07-28T06:04:28;9.20;;;2.70;;
57325;SDS011;43161;50.950;18.224;2023-07-28T06:06:54;8.50;;;2.50;;
57325;SDS011;43161;50.950;18.224;2023-07-28T06:09:19;7.20;;;2.60;;
57325;SDS011;43161;50.950;18.224;2023-07-28T06:11:45;8.30;;;2.40;;
57325;SDS011;43161;50.950;18.224;2023-07-28T06:14:10;7.20;;;2.40;;
57325;SDS011;43161;50.950;18.224;2023-07-28T06:16:36;6.60;;;2.00;;
57325;SDS011;43161;50.950;18.224;2023-07-28T06:19:01;6.20;;;2.10;;
57325;SDS011;43161;50.950;18.224;2023-07-28T06:21:27;7.30;;;2.60;;
57325;SDS011;43161;50.950;18.224;2023-07-28T06:23:53;7.60;;;2.40;;
57325;SDS011;43161;50.950;18.224;2023-07-28T06:26:18;8.20;;;2.20;;
57325;SDS011;43161;50.950;18.224;2023-07-28T06:28:44;8.90;;;2.40;;
57325;SDS011;43161;50.950;18.224;2023-07-28T06:31:10;8.00;;;2.50;;
57325;SDS011;43161;50.950;18.224;2023-07-28T06:33:36;7.00;;;2.50;;
57325;SDS011;43161;50.950;18.224;2023-07-28T06:36:02;9.20;;;2.80;;
57325;SDS011;43161;50.950;18.224;2023-07-28T06:38:28;8.00;;;2.70;;
57325;SDS011;43161;50.950;18.224;2023-07-28T06:40:54;8.40;;;2.70;;
57325;SDS011;43161;50.950;18.224;2023-07-28T06:43:20;7.90;;;2.50;;
57325;SDS011;43161;50.950;18.224;2023-07-28T06:45:46;8.90;;;2.70;;
57325;SDS011;43161;50.950;18.224;2023-07-28T06:48:12;8.70;;;2.70;;
57325;SDS011;43161;50.950;18.224;2023-07-28T06:50:38;8.10;;;2.90;;
57325;SDS011;43161;50.950;18.224;2023-07-28T06:53:04;8.00;;;3.10;;
57325;SDS011;43161;50.950;18.224;2023-07-28T06:55:30;8.80;;;3.00;;
57325;SDS011;43161;50.950;18.224;2023-07-28T06:57:56;9.60;;;2.80;;
57325;SDS011;43161;50.950;18.224;2023-07-28T07:00:21;9.40;;;3.20;;
57325;SDS011;43161;50.950;18.224;2023-07-28T07:02:48;9.90;;;3.00;;
57325;SDS011;43161;50.950;18.224;2023-07-28T07:05:14;7.40;;;2.80;;
57325;SDS011;43161;50.950;18.224;2023-07-28T07:07:40;9.00;;;3.00;;
57325;SDS011;43161;50.950;18.224;2023-07-28T07:10:07;8.80;;;2.80;;
57325;SDS011;43161;50.950;18.224;2023-07-28T07:12:33;9.40;;;3.40;;
57325;SDS011;43161;50.950;18.224;2023-07-28T07:14:59;9.00;;;3.10;;
57325;SDS011;43161;50.950;18.224;2023-07-28T07:17:24;8.70;;;2.90;;
57325;SDS011;43161;50.950;18.224;2023-07-28T07:19:50;9.20;;;3.30;;
57325;SDS011;43161;50.950;18.224;2023-07-28T07:22:15;9.60;;;3.30;;
57325;SDS011;43161;50.950;18.224;2023-07-28T07:24:41;7.80;;;3.10;;
57325;SDS011;43161;50.950;18.224;2023-07-28T07:27:06;8.70;;;3.40;;
57325;SDS011;43161;50.950;18.224;2023-07-28T07:29:35;8.50;;;3.60;;
57325;SDS011;43161;50.950;18.224;2023-07-28T07:32:00;9.80;;;3.90;;
57325;SDS011;43161;50.950;18.224;2023-07-28T07:34:26;9.40;;;4.00;;
57325;SDS011;43161;50.950;18.224;2023-07-28T07:36:51;11.20;;;4.10;;
57325;SDS011;43161;50.950;18.224;2023-07-28T07:39:17;9.10;;;3.70;;
57325;SDS011;43161;50.950;18.224;2023-07-28T07:41:43;10.30;;;4.40;;
57325;SDS011;43161;50.950;18.224;2023-07-28T07:44:09;9.50;;;4.50;;
57325;SDS011;43161;50.950;18.224;2023-07-28T07:46:34;9.10;;;3.90;;
57325;SDS011;43161;50.950;18.224;2023-07-28T07:49:00;8.30;;;3.80;;
57325;SDS011;43161;50.950;18.224;2023-07-28T07:51:25;12.40;;;4.00;;
57325;SDS011;43161;50.950;18.224;2023-07-28T07:53:51;10.10;;;4.00;;
57325;SDS011;43161;50.950;18.224;2023-07-28T07:56:17;10.00;;;4.00;;
57325;SDS011;43161;50.950;18.224;2023-07-28T07:58:43;8.40;;;4.00;;
57325;SDS011;43161;50.950;18.224;2023-07-28T08:01:09;10.70;;;4.00;;
57325;SDS011;43161;50.950;18.224;2023-07-28T08:03:34;9.80;;;3.80;;
57325;SDS011;43161;50.950;18.224;2023-07-28T08:06:03;9.70;;;3.80;;
57325;SDS011;43161;50.950;18.224;2023-07-28T08:08:29;9.10;;;4.10;;
57325;SDS011;43161;50.950;18.224;2023-07-28T08:10:55;9.80;;;3.40;;
57325;SDS011;43161;50.950;18.224;2023-07-28T08:13:21;8.60;;;3.40;;
57325;SDS011;43161;50.950;18.224;2023-07-28T08:15:47;7.50;;;2.80;;
57325;SDS011;43161;50.950;18.224;2023-07-28T08:18:13;5.80;;;2.30;;
57325;SDS011;43161;50.950;18.224;2023-07-28T08:20:39;5.40;;;2.00;;
57325;SDS011;43161;50.950;18.224;2023-07-28T08:23:05;6.60;;;2.40;;
57325;SDS011;43161;50.950;18.224;2023-07-28T08:25:31;6.60;;;2.30;;
57325;SDS011;43161;50.950;18.224;2023-07-28T08:27:57;5.30;;;2.00;;
57325;SDS011;43161;50.950;18.224;2023-07-28T08:30:23;4.70;;;1.80;;
57325;SDS011;43161;50.950;18.224;2023-07-28T08:32:48;7.70;;;2.10;;
57325;SDS011;43161;50.950;18.224;2023-07-28T08:35:14;6.80;;;1.80;;
57325;SDS011;43161;50.950;18.224;2023-07-28T08:37:40;6.10;;;2.20;;
57325;SDS011;43161;50.950;18.224;2023-07-28T08:40:06;4.90;;;1.50;;
57325;SDS011;43161;50.950;18.224;2023-07-28T08:42:35;4.60;;;1.70;;
57325;SDS011;43161;50.950;18.224;2023-07-28T08:45:02;7.90;;;2.30;;
57325;SDS011;43161;50.950;18.224;2023-07-28T08:47:30;7.20;;;2.30;;
57325;SDS011;43161;50.950;18.224;2023-07-28T08:49:57;5.80;;;2.20;;
57325;SDS011;43161;50.950;18.224;2023-07-28T08:52:22;7.30;;;2.30;;
57325;SDS011;43161;50.950;18.224;2023-07-28T08:54:49;7.10;;;2.30;;
57325;SDS011;43161;50.950;18.224;2023-07-28T08:57:16;6.60;;;2.20;;
57325;SDS011;43161;50.950;18.224;2023-07-28T08:59:41;7.00;;;2.50;;
57325;SDS011;43161;50.950;18.224;2023-07-28T09:02:16;7.00;;;2.90;;
57325;SDS011;43161;50.950;18.224;2023-07-28T09:04:47;8.00;;;2.40;;
57325;SDS011;43161;50.950;18.224;2023-07-28T09:07:13;6.50;;;2.30;;
57325;SDS011;43161;50.950;18.224;2023-07-28T09:09:40;7.00;;;2.10;;
57325;SDS011;43161;50.950;18.224;2023-07-28T09:12:06;6.10;;;2.10;;
57325;SDS011;43161;50.950;18.224;2023-07-28T09:14:37;8.70;;;2.70;;
57325;SDS011;43161;50.950;18.224;2023-07-28T09:17:10;6.20;;;2.30;;
57325;SDS011;43161;50.950;18.224;2023-07-28T09:22:18;5.40;;;2.10;;
57325;SDS011;43161;50.950;18.224;2023-07-28T09:24:46;5.40;;;1.90;;
57325;SDS011;43161;50.950;18.224;2023-07-28T09:27:34;7.00;;;2.00;;
57325;SDS011;43161;50.950;18.224;2023-07-28T09:29:59;5.20;;;1.80;;
57325;SDS011;43161;50.950;18.224;2023-07-28T09:32:28;6.10;;;1.70;;
57325;SDS011;43161;50.950;18.224;2023-07-28T09:37:40;6.50;;;1.80;;
57325;SDS011;43161;50.950;18.224;2023-07-28T09:40:08;5.70;;;1.90;;
57325;SDS011;43161;50.950;18.224;2023-07-28T09:42:37;6.40;;;2.00;;
57325;SDS011;43161;50.950;18.224;2023-07-28T09:45:04;4.40;;;1.60;;
57325;SDS011;43161;50.950;18.224;2023-07-28T09:47:32;5.50;;;1.70;;
57325;SDS011;43161;50.950;18.224;2023-07-28T09:50:04;4.20;;;1.60;;
57325;SDS011;43161;50.950;18.224;2023-07-28T09:52:33;7.60;;;1.80;;
57325;SDS011;43161;50.950;18.224;2023-07-28T09:55:08;5.70;;;1.70;;
57325;SDS011;43161;50.950;18.224;2023-07-28T09:57:39;4.70;;;1.60;;
57325;SDS011;43161;50.950;18.224;2023-07-28T10:00:10;5.50;;;1.80;;
57325;SDS011;43161;50.950;18.224;2023-07-28T10:02:38;5.60;;;1.70;;
57325;SDS011;43161;50.950;18.224;2023-07-28T10:05:07;4.10;;;1.50;;
57325;SDS011;43161;50.950;18.224;2023-07-28T10:07:43;5.30;;;1.70;;
57325;SDS011;43161;50.950;18.224;2023-07-28T10:10:10;5.10;;;1.70;;
57325;SDS011;43161;50.950;18.224;2023-07-28T10:15:09;4.50;;;1.50;;
57325;SDS011;43161;50.950;18.224;2023-07-28T10:17:37;4.50;;;1.50;;
57325;SDS011;43161;50.950;18.224;2023-07-28T10:20:04;3.60;;;1.30;;
57325;SDS011;43161;50.950;18.224;2023-07-28T10:25:22;4.50;;;1.40;;
57325;SDS011;43161;50.950;18.224;2023-07-28T10:27:49;3.40;;;1.30;;
57325;SDS011;43161;50.950;18.224;2023-07-28T10:30:16;4.40;;;1.50;;
57325;SDS011;43161;50.950;18.224;2023-07-28T10:32:43;4.50;;;1.40;;
57325;SDS011;43161;50.950;18.224;2023-07-28T10:37:43;5.50;;;1.90;;
57325;SDS011;43161;50.950;18.224;2023-07-28T10:43:01;5.20;;;1.80;;
57325;SDS011;43161;50.950;18.224;2023-07-28T10:45:29;4.60;;;1.50;;
57325;SDS011;43161;50.950;18.224;2023-07-28T10:47:56;5.90;;;1.70;;
57325;SDS011;43161;50.950;18.224;2023-07-28T10:50:26;5.40;;;1.50;;
57325;SDS011;43161;50.950;18.224;2023-07-28T10:52:53;4.90;;;1.70;;
57325;SDS011;43161;50.950;18.224;2023-07-28T10:55:20;3.90;;;1.60;;
57325;SDS011;43161;50.950;18.224;2023-07-28T10:57:49;4.20;;;1.50;;
57325;SDS011;43161;50.950;18.224;2023-07-28T11:00:20;5.30;;;1.70;;
57325;SDS011;43161;50.950;18.224;2023-07-28T11:02:52;4.30;;;1.50;;
57325;SDS011;43161;50.950;18.224;2023-07-28T11:05:22;4.50;;;1.60;;
57325;SDS011;43161;50.950;18.224;2023-07-28T11:07:49;4.60;;;1.50;;
57325;SDS011;43161;50.950;18.224;2023-07-28T11:10:16;4.30;;;1.80;;
57325;SDS011;43161;50.950;18.224;2023-07-28T11:12:43;3.60;;;1.40;;
57325;SDS011;43161;50.950;18.224;2023-07-28T11:15:09;3.90;;;1.50;;
57325;SDS011;43161;50.950;18.224;2023-07-28T11:17:40;4.10;;;1.40;;
57325;SDS011;43161;50.950;18.224;2023-07-28T11:22:53;5.00;;;1.80;;
57325;SDS011;43161;50.950;18.224;2023-07-28T11:25:20;3.50;;;1.30;;
57325;SDS011;43161;50.950;18.224;2023-07-28T11:27:46;7.50;;;1.70;;
57325;SDS011;43161;50.950;18.224;2023-07-28T11:30:13;4.30;;;1.70;;
57325;SDS011;43161;50.950;18.224;2023-07-28T11:32:45;6.70;;;1.90;;
57325;SDS011;43161;50.950;18.224;2023-07-28T11:35:13;4.80;;;1.60;;
57325;SDS011;43161;50.950;18.224;2023-07-28T11:37:41;5.00;;;1.90;;
57325;SDS011;43161;50.950;18.224;2023-07-28T11:40:09;4.80;;;1.90;;
57325;SDS011;43161;50.950;18.224;2023-07-28T11:42:40;6.50;;;2.00;;
57325;SDS011;43161;50.950;18.224;2023-07-28T11:45:09;5.30;;;1.90;;
57325;SDS011;43161;50.950;18.224;2023-07-28T11:47:35;4.50;;;1.80;;
57325;SDS011;43161;50.950;18.224;2023-07-28T11:50:01;6.30;;;2.00;;
57325;SDS011;43161;50.950;18.224;2023-07-28T11:52:31;8.30;;;1.80;;
57325;SDS011;43161;50.950;18.224;2023-07-28T11:55:04;4.70;;;1.70;;
57325;SDS011;43161;50.950;18.224;2023-07-28T11:57:30;5.10;;;1.70;;
57325;SDS011;43161;50.950;18.224;2023-07-28T11:59:58;4.30;;;1.40;;
57325;SDS011;43161;50.950;18.224;2023-07-28T12:02:27;4.10;;;1.50;;
57325;SDS011;43161;50.950;18.224;2023-07-28T12:04:54;5.10;;;1.50;;
57325;SDS011;43161;50.950;18.224;2023-07-28T12:10:02;3.90;;;1.20;;
57325;SDS011;43161;50.950;18.224;2023-07-28T12:12:31;4.00;;;1.40;;
57325;SDS011;43161;50.950;18.224;2023-07-28T12:20:39;5.20;;;1.50;;
57325;SDS011;43161;50.950;18.224;2023-07-28T12:23:12;4.00;;;1.70;;
57325;SDS011;43161;50.950;18.224;2023-07-28T12:25:39;5.50;;;1.70;;
57325;SDS011;43161;50.950;18.224;2023-07-28T12:28:05;4.70;;;1.70;;
57325;SDS011;43161;50.950;18.224;2023-07-28T12:30:34;4.10;;;1.50;;
57325;SDS011;43161;50.950;18.224;2023-07-28T12:33:00;5.40;;;1.60;;
57325;SDS011;43161;50.950;18.224;2023-07-28T12:35:30;5.60;;;1.70;;
57325;SDS011;43161;50.950;18.224;2023-07-28T12:37:58;4.70;;;1.70;;
57325;SDS011;43161;50.950;18.224;2023-07-28T12:40:29;4.90;;;1.90;;
57325;SDS011;43161;50.950;18.224;2023-07-28T12:42:56;7.70;;;2.30;;
57325;SDS011;43161;50.950;18.224;2023-07-28T12:45:22;5.10;;;2.30;;
57325;SDS011;43161;50.950;18.224;2023-07-28T12:47:51;6.00;;;2.20;;
57325;SDS011;43161;50.950;18.224;2023-07-28T12:50:20;5.90;;;1.90;;
57325;SDS011;43161;50.950;18.224;2023-07-28T12:52:50;4.50;;;1.70;;
57325;SDS011;43161;50.950;18.224;2023-07-28T12:55:16;6.70;;;2.10;;
57325;SDS011;43161;50.950;18.224;2023-07-28T12:57:42;4.90;;;1.90;;
57325;SDS011;43161;50.950;18.224;2023-07-28T13:00:09;5.50;;;1.90;;
57325;SDS011;43161;50.950;18.224;2023-07-28T13:02:39;5.30;;;1.90;;
57325;SDS011;43161;50.950;18.224;2023-07-28T13:05:07;5.40;;;1.70;;
57325;SDS011;43161;50.950;18.224;2023-07-28T13:07:36;4.00;;;1.70;;
57325;SDS011;43161;50.950;18.224;2023-07-28T13:10:06;5.00;;;1.70;;
57325;SDS011;43161;50.950;18.224;2023-07-28T13:12:35;7.40;;;2.30;;
57325;SDS011;43161;50.950;18.224;2023-07-28T13:15:01;6.50;;;2.20;;
57325;SDS011;43161;50.950;18.224;2023-07-28T13:17:27;7.90;;;1.90;;
57325;SDS011;43161;50.950;18.224;2023-07-28T13:19:52;6.70;;;2.10;;
57325;SDS011;43161;50.950;18.224;2023-07-28T13:22:19;3.90;;;1.80;;
57325;SDS011;43161;50.950;18.224;2023-07-28T13:24:44;5.20;;;1.90;;
57325;SDS011;43161;50.950;18.224;2023-07-28T13:27:10;8.40;;;2.30;;
57325;SDS011;43161;50.950;18.224;2023-07-28T13:29:36;4.20;;;1.50;;
57325;SDS011;43161;50.950;18.224;2023-07-28T13:32:01;4.40;;;1.60;;
57325;SDS011;43161;50.950;18.224;2023-07-28T13:34:27;4.40;;;1.90;;
57325;SDS011;43161;50.950;18.224;2023-07-28T13:36:56;5.70;;;1.80;;
57325;SDS011;43161;50.950;18.224;2023-07-28T13:39:22;6.30;;;2.10;;
57325;SDS011;43161;50.950;18.224;2023-07-28T13:41:48;5.00;;;1.90;;
57325;SDS011;43161;50.950;18.224;2023-07-28T13:44:14;4.20;;;1.60;;
57325;SDS011;43161;50.950;18.224;2023-07-28T13:46:40;5.00;;;1.80;;
57325;SDS011;43161;50.950;18.224;2023-07-28T13:49:05;4.90;;;2.10;;
57325;SDS011;43161;50.950;18.224;2023-07-28T13:51:31;6.20;;;2.10;;
57325;SDS011;43161;50.950;18.224;2023-07-28T13:53:56;5.00;;;1.90;;
57325;SDS011;43161;50.950;18.224;2023-07-28T13:56:22;6.00;;;2.10;;
57325;SDS011;43161;50.950;18.224;2023-07-28T13:58:47;5.40;;;1.70;;
57325;SDS011;43161;50.950;18.224;2023-07-28T14:01:13;5.80;;;2.00;;
57325;SDS011;43161;50.950;18.224;2023-07-28T14:03:39;7.40;;;2.20;;
57325;SDS011;43161;50.950;18.224;2023-07-28T14:06:05;5.40;;;2.00;;
57325;SDS011;43161;50.950;18.224;2023-07-28T14:08:31;5.60;;;2.20;;
57325;SDS011;43161;50.950;18.224;2023-07-28T14:10:56;5.60;;;2.00;;
57325;SDS011;43161;50.950;18.224;2023-07-28T14:13:22;6.50;;;2.30;;
57325;SDS011;43161;50.950;18.224;2023-07-28T14:15:48;5.20;;;2.20;;
57325;SDS011;43161;50.950;18.224;2023-07-28T14:18:15;4.00;;;1.80;;
57325;SDS011;43161;50.950;18.224;2023-07-28T14:20:41;5.60;;;1.90;;
57325;SDS011;43161;50.950;18.224;2023-07-28T14:25:52;4.10;;;1.70;;
57325;SDS011;43161;50.950;18.224;2023-07-28T14:28:19;4.60;;;1.90;;
57325;SDS011;43161;50.950;18.224;2023-07-28T14:30:45;6.10;;;2.20;;
57325;SDS011;43161;50.950;18.224;2023-07-28T14:33:12;6.00;;;2.30;;
57325;SDS011;43161;50.950;18.224;2023-07-28T14:35:39;5.00;;;2.20;;
57325;SDS011;43161;50.950;18.224;2023-07-28T14:38:05;6.10;;;2.40;;
57325;SDS011;43161;50.950;18.224;2023-07-28T14:40:31;6.60;;;2.40;;
57325;SDS011;43161;50.950;18.224;2023-07-28T14:42:56;4.60;;;2.20;;
57325;SDS011;43161;50.950;18.224;2023-07-28T14:45:22;5.00;;;2.00;;
57325;SDS011;43161;50.950;18.224;2023-07-28T14:47:48;4.80;;;2.00;;
57325;SDS011;43161;50.950;18.224;2023-07-28T14:50:13;6.00;;;2.20;;
57325;SDS011;43161;50.950;18.224;2023-07-28T14:52:39;5.90;;;2.00;;
57325;SDS011;43161;50.950;18.224;2023-07-28T14:55:05;6.30;;;1.70;;
57325;SDS011;43161;50.950;18.224;2023-07-28T14:57:31;3.20;;;1.30;;
57325;SDS011;43161;50.950;18.224;2023-07-28T14:59:57;2.80;;;1.10;;
57325;SDS011;43161;50.950;18.224;2023-07-28T15:02:23;3.50;;;1.20;;